sensor_id;sensor_type;location;lat;lon;timestamp;pressure;altitude;pressure_sealevel;temperature;humidity
20630;BME280;17386;43.846;25.950;2024-01-27T00:01:04;101850.03;;;2.94;100.00
20630;BME280;17386;43.846;25.950;2024-01-27T00:03:29;101850.09;;;2.98;100.00
20630;BME280;17386;43.846;25.950;2024-01-27T00:05:54;101853.66;;;3.04;100.00
20630;BME280;17386;43.846;25.950;2024-01-27T00:08:20;101850.19;;;3.06;100.00
20630;BME280;17386;43.846;25.950;2024-01-27T00:10:46;101851.00;;;3.00;100.00
20630;BME280;17386;43.846;25.950;2024-01-27T00:13:12;101853.69;;;3.05;100.00
20630;BME280;17386;43.846;25.950;2024-01-27T00:15:38;101864.03;;;2.94;100.00
20630;BME280;17386;43.846;25.950;2024-01-27T00:18:03;101863.03;;;2.83;100.00
20630;BME280;17386;43.846;25.950;2024-01-27T00:20:29;101860.34;;;2.80;100.00
20630;BME280;17386;43.846;25.950;2024-01-27T00:22:54;101859.38;;;2.73;100.00
20630;BME280;17386;43.846;25.950;2024-01-27T00:25:19;101859.31;;;2.69;100.00
20630;BME280;17386;43.846;25.950;2024-01-27T00:27:45;101859.47;;;2.80;100.00
20630;BME280;17386;43.846;25.950;2024-01-27T00:30:10;101859.38;;;2.73;100.00
20630;BME280;17386;43.846;25.950;2024-01-27T00:32:37;101847.91;;;2.67;100.00
20630;BME280;17386;43.846;25.950;2024-01-27T00:35:03;101852.31;;;2.69;100.00
20630;BME280;17386;43.846;25.950;2024-01-27T00:37:28;101836.44;;;2.60;100.00
20630;BME280;17386;43.846;25.950;2024-01-27T00:39:54;101831.38;;;2.74;100.00
20630;BME280;17386;43.846;25.950;2024-01-27T00:42:19;101827.16;;;2.82;100.00
20630;BME280;17386;43.846;25.950;2024-01-27T00:44:49;101821.97;;;2.88;100.00
20630;BME280;17386;43.846;25.950;2024-01-27T00:47:15;101820.19;;;2.87;100.00
20630;BME280;17386;43.846;25.950;2024-01-27T00:49:40;101826.28;;;2.85;100.00
20630;BME280;17386;43.846;25.950;2024-01-27T00:52:06;101822.91;;;2.93;100.00
20630;BME280;17386;43.846;25.950;2024-01-27T00:54:31;101815.97;;;3.00;100.00
20630;BME280;17386;43.846;25.950;2024-01-27T00:56:56;101809.03;;;3.02;100.00
20630;BME280;17386;43.846;25.950;2024-01-27T00:59:22;101803.78;;;3.02;100.00
20630;BME280;17386;43.846;25.950;2024-01-27T01:01:47;101795.94;;;3.08;100.00
20630;BME280;17386;43.846;25.950;2024-01-27T01:04:13;101791.63;;;3.13;100.00
20630;BME280;17386;43.846;25.950;2024-01-27T01:06:39;101795.94;;;3.08;100.00
20630;BME280;17386;43.846;25.950;2024-01-27T01:09:05;101782.88;;;3.10;100.00
20630;BME280;17386;43.846;25.950;2024-01-27T01:11:31;101785.50;;;3.13;100.00
20630;BME280;17386;43.846;25.950;2024-01-27T01:13:56;101777.66;;;3.14;100.00
20630;BME280;17386;43.846;25.950;2024-01-27T01:16:21;101769.66;;;3.04;100.00
20630;BME280;17386;43.846;25.950;2024-01-27T01:18:47;101765.25;;;3.01;100.00
20630;BME280;17386;43.846;25.950;2024-01-27T01:21:12;101767.94;;;3.06;100.00
20630;BME280;17386;43.846;25.950;2024-01-27T01:23:38;101768.78;;;3.03;100.00
20630;BME280;17386;43.846;25.950;2024-01-27T01:26:04;101757.41;;;3.03;100.00
20630;BME280;17386;43.846;25.950;2024-01-27T01:28:29;101762.66;;;3.03;100.00
20630;BME280;17386;43.846;25.950;2024-01-27T01:30:57;101761.81;;;3.07;100.00
20630;BME280;17386;43.846;25.950;2024-01-27T01:33:22;101760.06;;;3.07;100.00
20630;BME280;17386;43.846;25.950;2024-01-27T01:35:47;101758.38;;;3.11;100.00
20630;BME280;17386;43.846;25.950;2024-01-27T01:38:13;101751.31;;;3.08;100.00
20630;BME280;17386;43.846;25.950;2024-01-27T01:40:38;101763.63;;;3.11;100.00
20630;BME280;17386;43.846;25.950;2024-01-27T01:43:09;101763.66;;;3.15;100.00
20630;BME280;17386;43.846;25.950;2024-01-27T01:45:35;101759.31;;;3.16;100.00
20630;BME280;17386;43.846;25.950;2024-01-27T01:48:01;101765.47;;;3.19;100.00
20630;BME280;17386;43.846;25.950;2024-01-27T01:50:26;101774.22;;;3.20;100.00
20630;BME280;17386;43.846;25.950;2024-01-27T01:52:52;101762.84;;;3.21;100.00
20630;BME280;17386;43.846;25.950;2024-01-27T01:55:18;101766.41;;;3.24;100.00
20630;BME280;17386;43.846;25.950;2024-01-27T01:57:44;101775.09;;;3.22;100.00
20630;BME280;17386;43.846;25.950;2024-01-27T02:00:10;101775.97;;;3.21;100.00
20630;BME280;17386;43.846;25.950;2024-01-27T02:02:36;101765.53;;;3.24;100.00
20630;BME280;17386;43.846;25.950;2024-01-27T02:05:01;101767.28;;;3.26;100.00
20630;BME280;17386;43.846;25.950;2024-01-27T02:07:27;101760.34;;;3.30;100.00
20630;BME280;17386;43.846;25.950;2024-01-27T02:09:52;101764.72;;;3.31;100.00
20630;BME280;17386;43.846;25.950;2024-01-27T02:12:18;101750.78;;;3.37;100.00
20630;BME280;17386;43.846;25.950;2024-01-27T02:14:43;101745.56;;;3.43;100.00
20630;BME280;17386;43.846;25.950;2024-01-27T02:17:08;101734.13;;;3.38;100.00
20630;BME280;17386;43.846;25.950;2024-01-27T02:19:34;101747.28;;;3.39;100.00
20630;BME280;17386;43.846;25.950;2024-01-27T02:21:59;101747.28;;;3.41;100.00
20630;BME280;17386;43.846;25.950;2024-01-27T02:24:25;101730.66;;;3.42;100.00
20630;BME280;17386;43.846;25.950;2024-01-27T02:26:50;101738.59;;;3.48;100.00
20630;BME280;17386;43.846;25.950;2024-01-27T02:29:15;101742.16;;;3.51;100.00
20630;BME280;17386;43.846;25.950;2024-01-27T02:31:41;101736.03;;;3.51;100.00
20630;BME280;17386;43.846;25.950;2024-01-27T02:34:06;101736.91;;;3.51;100.00
20630;BME280;17386;43.846;25.950;2024-01-27T02:36:32;101734.28;;;3.54;100.00
20630;BME280;17386;43.846;25.950;2024-01-27T02:38:57;101734.34;;;3.59;100.00
20630;BME280;17386;43.846;25.950;2024-01-27T02:41:22;101731.72;;;3.62;100.00
20630;BME280;17386;43.846;25.950;2024-01-27T02:43:48;101722.09;;;3.63;100.00
20630;BME280;17386;43.846;25.950;2024-01-27T02:46:13;101722.09;;;3.63;100.00
20630;BME280;17386;43.846;25.950;2024-01-27T02:48:44;101723.88;;;3.65;100.00
20630;BME280;17386;43.846;25.950;2024-01-27T02:51:09;101723.03;;;3.69;100.00
20630;BME280;17386;43.846;25.950;2024-01-27T02:53:35;101712.50;;;3.66;100.00
20630;BME280;17386;43.846;25.950;2024-01-27T02:56:01;101719.50;;;3.67;100.00
20630;BME280;17386;43.846;25.950;2024-01-27T02:58:26;101723.00;;;3.68;100.00
20630;BME280;17386;43.846;25.950;2024-01-27T03:00:52;101726.56;;;3.71;100.00
20630;BME280;17386;43.846;25.950;2024-01-27T03:03:18;101723.94;;;3.73;100.00
20630;BME280;17386;43.846;25.950;2024-01-27T03:05:43;101721.31;;;3.74;100.00
20630;BME280;17386;43.846;25.950;2024-01-27T03:08:08;101722.19;;;3.76;100.00
20630;BME280;17386;43.846;25.950;2024-01-27T03:10:34;101718.69;;;3.73;100.00
20630;BME280;17386;43.846;25.950;2024-01-27T03:12:59;101709.09;;;3.78;100.00
20630;BME280;17386;43.846;25.950;2024-01-27T03:15:25;101695.09;;;3.80;100.00
20630;BME280;17386;43.846;25.950;2024-01-27T03:17:50;101693.38;;;3.87;100.00
20630;BME280;17386;43.846;25.950;2024-01-27T03:20:16;101671.47;;;3.85;100.00
20630;BME280;17386;43.846;25.950;2024-01-27T03:22:41;101645.22;;;3.91;100.00
20630;BME280;17386;43.846;25.950;2024-01-27T03:25:10;101642.59;;;3.94;100.00
20630;BME280;17386;43.846;25.950;2024-01-27T03:27:39;101646.09;;;3.92;100.00
20630;BME280;17386;43.846;25.950;2024-01-27T03:30:05;101649.63;;;3.95;100.00
20630;BME280;17386;43.846;25.950;2024-01-27T03:32:31;101662.75;;;3.97;100.00
20630;BME280;17386;43.846;25.950;2024-01-27T03:34:59;101668.00;;;3.92;100.00
20630;BME280;17386;43.846;25.950;2024-01-27T03:37:25;101687.25;;;3.85;100.00
20630;BME280;17386;43.846;25.950;2024-01-27T03:39:50;101680.28;;;3.93;100.00
20630;BME280;17386;43.846;25.950;2024-01-27T03:42:16;101687.28;;;3.94;100.00
20630;BME280;17386;43.846;25.950;2024-01-27T03:44:41;101683.84;;;4.01;100.00
20630;BME280;17386;43.846;25.950;2024-01-27T03:47:07;101687.38;;;4.06;100.00
20630;BME280;17386;43.846;25.950;2024-01-27T03:49:32;101683.00;;;4.08;100.00
20630;BME280;17386;43.846;25.950;2024-01-27T03:51:57;101679.56;;;4.19;100.00
20630;BME280;17386;43.846;25.950;2024-01-27T03:54:23;101669.06;;;4.25;100.00
20630;BME280;17386;43.846;25.950;2024-01-27T03:56:48;101652.44;;;4.26;100.00
20630;BME280;17386;43.846;25.950;2024-01-27T03:59:14;101657.69;;;4.32;100.00
20630;BME280;17386;43.846;25.950;2024-01-27T04:01:39;101645.38;;;4.23;100.00
20630;BME280;17386;43.846;25.950;2024-01-27T04:04:05;101648.03;;;4.26;100.00
20630;BME280;17386;43.846;25.950;2024-01-27T04:06:36;101651.56;;;4.30;100.00
20630;BME280;17386;43.846;25.950;2024-01-27T04:09:01;101644.56;;;4.35;100.00
20630;BME280;17386;43.846;25.950;2024-01-27T04:11:28;101640.19;;;4.32;100.00
20630;BME280;17386;43.846;25.950;2024-01-27T04:13:53;101637.56;;;4.32;100.00
20630;BME280;17386;43.846;25.950;2024-01-27T04:16:19;101633.13;;;4.30;100.00
20630;BME280;17386;43.846;25.950;2024-01-27T04:18:44;101624.38;;;4.31;100.00
20630;BME280;17386;43.846;25.950;2024-01-27T04:21:09;101613.88;;;4.34;100.00
20630;BME280;17386;43.846;25.950;2024-01-27T04:23:35;101609.50;;;4.36;100.00
20630;BME280;17386;43.846;25.950;2024-01-27T04:26:00;101609.50;;;4.36;100.00
20630;BME280;17386;43.846;25.950;2024-01-27T04:28:26;101609.50;;;4.37;100.00
20630;BME280;17386;43.846;25.950;2024-01-27T04:30:52;101612.16;;;4.44;100.00
20630;BME280;17386;43.846;25.950;2024-01-27T04:33:17;101619.19;;;4.49;100.00
20630;BME280;17386;43.846;25.950;2024-01-27T04:35:42;101618.31;;;4.52;100.00
20630;BME280;17386;43.846;25.950;2024-01-27T04:38:08;101615.69;;;4.55;100.00
20630;BME280;17386;43.846;25.950;2024-01-27T04:40:34;101613.94;;;4.57;100.00
20630;BME280;17386;43.846;25.950;2024-01-27T04:43:01;101606.03;;;4.52;100.00
20630;BME280;17386;43.846;25.950;2024-01-27T04:45:26;101617.44;;;4.57;100.00
20630;BME280;17386;43.846;25.950;2024-01-27T04:47:52;101615.69;;;4.59;100.00
20630;BME280;17386;43.846;25.950;2024-01-27T04:50:19;101607.81;;;4.61;100.00
20630;BME280;17386;43.846;25.950;2024-01-27T04:52:45;101621.88;;;4.69;100.00
20630;BME280;17386;43.846;25.950;2024-01-27T04:55:11;101621.00;;;4.72;100.00
20630;BME280;17386;43.846;25.950;2024-01-27T04:57:36;101614.00;;;4.78;100.00
20630;BME280;17386;43.846;25.950;2024-01-27T05:00:02;101619.25;;;4.80;100.00
20630;BME280;17386;43.846;25.950;2024-01-27T05:02:29;101620.16;;;4.85;100.00
20630;BME280;17386;43.846;25.950;2024-01-27T05:04:54;101617.53;;;4.91;100.00
20630;BME280;17386;43.846;25.950;2024-01-27T05:07:20;101616.66;;;4.92;100.00
20630;BME280;17386;43.846;25.950;2024-01-27T05:09:46;101611.38;;;4.89;100.00
20630;BME280;17386;43.846;25.950;2024-01-27T05:12:11;101614.03;;;4.87;100.00
20630;BME280;17386;43.846;25.950;2024-01-27T05:14:37;101608.75;;;4.90;100.00
20630;BME280;17386;43.846;25.950;2024-01-27T05:17:02;101614.88;;;4.92;100.00
20630;BME280;17386;43.846;25.950;2024-01-27T05:19:28;101615.78;;;4.91;100.00
20630;BME280;17386;43.846;25.950;2024-01-27T05:21:53;101615.78;;;4.94;100.00
20630;BME280;17386;43.846;25.950;2024-01-27T05:24:18;101614.03;;;4.90;100.00
20630;BME280;17386;43.846;25.950;2024-01-27T05:26:44;101606.09;;;4.84;100.00
20630;BME280;17386;43.846;25.950;2024-01-27T05:29:09;101614.00;;;4.81;100.00
20630;BME280;17386;43.846;25.950;2024-01-27T05:31:35;101599.97;;;4.82;100.00
20630;BME280;17386;43.846;25.950;2024-01-27T05:34:01;101603.47;;;4.80;100.00
20630;BME280;17386;43.846;25.950;2024-01-27T05:36:26;101606.13;;;4.83;100.00
20630;BME280;17386;43.846;25.950;2024-01-27T05:38:51;101604.34;;;4.86;100.00
20630;BME280;17386;43.846;25.950;2024-01-27T05:41:17;101609.59;;;4.79;100.00
20630;BME280;17386;43.846;25.950;2024-01-27T05:43:42;101603.47;;;4.86;100.00
20630;BME280;17386;43.846;25.950;2024-01-27T05:46:09;101607.88;;;4.96;100.00
20630;BME280;17386;43.846;25.950;2024-01-27T05:48:35;101607.00;;;4.99;100.00
20630;BME280;17386;43.846;25.950;2024-01-27T05:51:00;101612.28;;;5.02;100.00
20630;BME280;17386;43.846;25.950;2024-01-27T05:53:27;101606.13;;;4.95;100.00
20630;BME280;17386;43.846;25.950;2024-01-27T05:55:53;101602.63;;;5.05;100.00
20630;BME280;17386;43.846;25.950;2024-01-27T05:58:24;101620.19;;;5.06;100.00
20630;BME280;17386;43.846;25.950;2024-01-27T06:00:50;101614.91;;;5.11;100.00
20630;BME280;17386;43.846;25.950;2024-01-27T06:03:15;101608.75;;;5.07;100.00
20630;BME280;17386;43.846;25.950;2024-01-27T06:05:42;101623.69;;;5.05;100.00
20630;BME280;17386;43.846;25.950;2024-01-27T06:08:08;101623.69;;;5.07;100.00
20630;BME280;17386;43.846;25.950;2024-01-27T06:10:33;101625.44;;;5.12;100.00
20630;BME280;17386;43.846;25.950;2024-01-27T06:13:01;101633.34;;;5.20;100.00
20630;BME280;17386;43.846;25.950;2024-01-27T06:15:27;101624.59;;;5.18;100.00
20630;BME280;17386;43.846;25.950;2024-01-27T06:17:52;101628.97;;;5.17;100.00
20630;BME280;17386;43.846;25.950;2024-01-27T06:20:17;101621.97;;;5.22;100.00
20630;BME280;17386;43.846;25.950;2024-01-27T06:22:44;101625.44;;;5.28;100.00
20630;BME280;17386;43.846;25.950;2024-01-27T06:25:09;101628.13;;;5.35;100.00
20630;BME280;17386;43.846;25.950;2024-01-27T06:27:36;101628.97;;;5.17;100.00
20630;BME280;17386;43.846;25.950;2024-01-27T06:30:01;101635.13;;;5.18;100.00
20630;BME280;17386;43.846;25.950;2024-01-27T06:32:26;101628.09;;;5.09;100.00
20630;BME280;17386;43.846;25.950;2024-01-27T06:34:52;101639.50;;;5.13;100.00
20630;BME280;17386;43.846;25.950;2024-01-27T06:37:17;101642.13;;;5.10;100.00
20630;BME280;17386;43.846;25.950;2024-01-27T06:39:43;101636.00;;;5.23;100.00
20630;BME280;17386;43.846;25.950;2024-01-27T06:42:08;101637.75;;;5.26;100.00
20630;BME280;17386;43.846;25.950;2024-01-27T06:44:33;101628.97;;;5.28;100.00
20630;BME280;17386;43.846;25.950;2024-01-27T06:46:59;101631.59;;;5.46;100.00
20630;BME280;17386;43.846;25.950;2024-01-27T06:49:24;101636.88;;;5.51;100.00
20630;BME280;17386;43.846;25.950;2024-01-27T06:51:50;101624.56;;;5.61;100.00
20630;BME280;17386;43.846;25.950;2024-01-27T06:54:15;101620.19;;;5.57;100.00
20630;BME280;17386;43.846;25.950;2024-01-27T06:56:40;101619.28;;;5.48;100.00
20630;BME280;17386;43.846;25.950;2024-01-27T06:59:06;101616.66;;;5.47;100.00
20630;BME280;17386;43.846;25.950;2024-01-27T07:01:32;101615.78;;;5.42;100.00
20630;BME280;17386;43.846;25.950;2024-01-27T07:03:58;101612.28;;;5.54;100.00
20630;BME280;17386;43.846;25.950;2024-01-27T07:06:23;101611.41;;;5.53;100.00
20630;BME280;17386;43.846;25.950;2024-01-27T07:08:48;101610.50;;;5.66;100.00
20630;BME280;17386;43.846;25.950;2024-01-27T07:11:14;101621.09;;;5.49;100.00
20630;BME280;17386;43.846;25.950;2024-01-27T07:13:41;101621.06;;;5.42;100.00
20630;BME280;17386;43.846;25.950;2024-01-27T07:16:06;101619.28;;;5.48;100.00
20630;BME280;17386;43.846;25.950;2024-01-27T07:18:32;101626.31;;;5.54;100.00
20630;BME280;17386;43.846;25.950;2024-01-27T07:21:00;101621.94;;;5.47;100.00
20630;BME280;17386;43.846;25.950;2024-01-27T07:23:26;101621.91;;;5.62;100.00
20630;BME280;17386;43.846;25.950;2024-01-27T07:25:51;101625.44;;;5.60;100.00
20630;BME280;17386;43.846;25.950;2024-01-27T07:28:17;101626.31;;;5.48;100.00
20630;BME280;17386;43.846;25.950;2024-01-27T07:30:44;101630.75;;;5.49;100.00
20630;BME280;17386;43.846;25.950;2024-01-27T07:33:09;101624.59;;;5.58;100.00
20630;BME280;17386;43.846;25.950;2024-01-27T07:35:35;101632.47;;;5.59;100.00
20630;BME280;17386;43.846;25.950;2024-01-27T07:38:00;101624.56;;;5.48;100.00
20630;BME280;17386;43.846;25.950;2024-01-27T07:40:26;101632.50;;;5.30;100.00
20630;BME280;17386;43.846;25.950;2024-01-27T07:42:51;101625.44;;;5.34;100.00
20630;BME280;17386;43.846;25.950;2024-01-27T07:45:17;101628.97;;;5.42;100.00
20630;BME280;17386;43.846;25.950;2024-01-27T07:47:42;101628.94;;;5.56;100.00
20630;BME280;17386;43.846;25.950;2024-01-27T07:50:07;101628.97;;;5.60;100.00
20630;BME280;17386;43.846;25.950;2024-01-27T07:52:35;101636.88;;;5.57;100.00
20630;BME280;17386;43.846;25.950;2024-01-27T07:55:00;101632.50;;;5.42;100.00
20630;BME280;17386;43.846;25.950;2024-01-27T07:57:27;101630.72;;;5.55;100.00
20630;BME280;17386;43.846;25.950;2024-01-27T07:59:52;101626.34;;;5.53;100.00
20630;BME280;17386;43.846;25.950;2024-01-27T08:02:18;101626.34;;;5.51;100.00
20630;BME280;17386;43.846;25.950;2024-01-27T08:04:43;101628.97;;;5.48;100.00
20630;BME280;17386;43.846;25.950;2024-01-27T08:07:09;101629.84;;;5.55;100.00
20630;BME280;17386;43.846;25.950;2024-01-27T08:09:40;101635.13;;;5.59;100.00
20630;BME280;17386;43.846;25.950;2024-01-27T08:12:05;101641.28;;;5.64;100.00
20630;BME280;17386;43.846;25.950;2024-01-27T08:14:32;101638.59;;;5.81;100.00
20630;BME280;17386;43.846;25.950;2024-01-27T08:16:59;101641.25;;;5.75;100.00
20630;BME280;17386;43.846;25.950;2024-01-27T08:19:24;101651.78;;;5.75;100.00
20630;BME280;17386;43.846;25.950;2024-01-27T08:21:50;101650.91;;;5.97;100.00
20630;BME280;17386;43.846;25.950;2024-01-27T08:24:16;101645.63;;;6.02;100.00
20630;BME280;17386;43.846;25.950;2024-01-27T08:26:41;101643.00;;;5.99;100.00
20630;BME280;17386;43.846;25.950;2024-01-27T08:29:08;101647.34;;;6.09;100.00
20630;BME280;17386;43.846;25.950;2024-01-27T08:31:33;101632.28;;;6.42;100.00
20630;BME280;17386;43.846;25.950;2024-01-27T08:33:59;101638.41;;;6.51;100.00
20630;BME280;17386;43.846;25.950;2024-01-27T08:36:24;101635.78;;;6.53;100.00
20630;BME280;17386;43.846;25.950;2024-01-27T08:38:50;101638.47;;;6.41;100.00
20630;BME280;17386;43.846;25.950;2024-01-27T08:41:15;101644.53;;;6.56;100.00
20630;BME280;17386;43.846;25.950;2024-01-27T08:43:41;101641.06;;;6.53;100.00
20630;BME280;17386;43.846;25.950;2024-01-27T08:46:06;101648.06;;;6.57;100.00
20630;BME280;17386;43.846;25.950;2024-01-27T08:48:36;101639.97;;;6.88;100.00
20630;BME280;17386;43.846;25.950;2024-01-27T08:51:02;101642.66;;;6.77;100.00
20630;BME280;17386;43.846;25.950;2024-01-27T08:53:27;101646.25;;;6.64;100.00
20630;BME280;17386;43.846;25.950;2024-01-27T08:55:53;101641.94;;;6.52;100.00
20630;BME280;17386;43.846;25.950;2024-01-27T08:58:18;101643.66;;;6.56;100.00
20630;BME280;17386;43.846;25.950;2024-01-27T09:00:43;101643.63;;;6.62;100.00
20630;BME280;17386;43.846;25.950;2024-01-27T09:03:09;101646.22;;;6.74;100.00
20630;BME280;17386;43.846;25.950;2024-01-27T09:05:34;101649.59;;;6.96;100.00
20630;BME280;17386;43.846;25.950;2024-01-27T09:08:00;101647.13;;;6.73;100.00
20630;BME280;17386;43.846;25.950;2024-01-27T09:10:25;101640.03;;;6.80;100.00
20630;BME280;17386;43.846;25.950;2024-01-27T09:12:50;101644.47;;;6.70;100.00
20630;BME280;17386;43.846;25.950;2024-01-27T09:15:16;101640.88;;;6.79;100.00
20630;BME280;17386;43.846;25.950;2024-01-27T09:17:42;101636.63;;;6.60;100.00
20630;BME280;17386;43.846;25.950;2024-01-27T09:20:08;101652.47;;;6.50;100.00
20630;BME280;17386;43.846;25.950;2024-01-27T09:22:34;101648.97;;;6.50;100.00
20630;BME280;17386;43.846;25.950;2024-01-27T09:24:59;101653.34;;;6.60;100.00
20630;BME280;17386;43.846;25.950;2024-01-27T09:27:25;101651.63;;;6.47;100.00
20630;BME280;17386;43.846;25.950;2024-01-27T09:29:50;101652.50;;;6.53;100.00
20630;BME280;17386;43.846;25.950;2024-01-27T09:32:16;101657.78;;;6.49;100.00
20630;BME280;17386;43.846;25.950;2024-01-27T09:34:41;101659.50;;;6.59;100.00
20630;BME280;17386;43.846;25.950;2024-01-27T09:37:07;101654.16;;;6.68;100.00
20630;BME280;17386;43.846;25.950;2024-01-27T09:39:32;101660.34;;;6.64;100.00
20630;BME280;17386;43.846;25.950;2024-01-27T09:42:00;101669.13;;;6.74;100.00
20630;BME280;17386;43.846;25.950;2024-01-27T09:44:31;101662.91;;;6.78;100.00
20630;BME280;17386;43.846;25.950;2024-01-27T09:46:56;101673.63;;;6.47;100.00
20630;BME280;17386;43.846;25.950;2024-01-27T09:49:22;101666.50;;;6.68;100.00
20630;BME280;17386;43.846;25.950;2024-01-27T09:51:49;101672.69;;;6.62;100.00
20630;BME280;17386;43.846;25.950;2024-01-27T09:54:15;101673.56;;;6.63;100.00
20630;BME280;17386;43.846;25.950;2024-01-27T09:56:40;101671.72;;;6.72;100.00
20630;BME280;17386;43.846;25.950;2024-01-27T09:59:07;101671.78;;;6.66;100.00
20630;BME280;17386;43.846;25.950;2024-01-27T10:01:35;101672.66;;;6.68;100.00
20630;BME280;17386;43.846;25.950;2024-01-27T10:04:00;101679.66;;;6.80;100.00
20630;BME280;17386;43.846;25.950;2024-01-27T10:06:26;101689.34;;;6.79;100.00
20630;BME280;17386;43.846;25.950;2024-01-27T10:08:54;101688.47;;;6.70;100.00
20630;BME280;17386;43.846;25.950;2024-01-27T10:11:20;101687.66;;;6.60;100.00
20630;BME280;17386;43.846;25.950;2024-01-27T10:13:57;101690.28;;;6.57;100.00
20630;BME280;17386;43.846;25.950;2024-01-27T10:16:25;101690.31;;;6.51;100.00
20630;BME280;17386;43.846;25.950;2024-01-27T10:19:03;101689.34;;;6.70;100.00
20630;BME280;17386;43.846;25.950;2024-01-27T10:21:29;101696.34;;;6.79;100.00
20630;BME280;17386;43.846;25.950;2024-01-27T10:23:55;101700.75;;;6.83;100.00
20630;BME280;17386;43.846;25.950;2024-01-27T10:26:20;101690.19;;;6.83;100.00
20630;BME280;17386;43.846;25.950;2024-01-27T10:28:56;101704.13;;;7.06;100.00
20630;BME280;17386;43.846;25.950;2024-01-27T10:31:27;101696.13;;;7.23;100.00
20630;BME280;17386;43.846;25.950;2024-01-27T10:33:53;101696.84;;;7.40;100.00
20630;BME280;17386;43.846;25.950;2024-01-27T10:36:19;101696.81;;;7.50;100.00
20630;BME280;17386;43.846;25.950;2024-01-27T10:38:45;101703.72;;;7.69;100.00
20630;BME280;17386;43.846;25.950;2024-01-27T10:41:10;101699.22;;;7.77;100.00
20630;BME280;17386;43.846;25.950;2024-01-27T10:43:37;101705.41;;;7.76;100.00
20630;BME280;17386;43.846;25.950;2024-01-27T10:46:06;101703.75;;;7.60;100.00
20630;BME280;17386;43.846;25.950;2024-01-27T10:48:35;101690.50;;;7.66;100.00
20630;BME280;17386;43.846;25.950;2024-01-27T10:51:08;101695.72;;;7.77;100.00
20630;BME280;17386;43.846;25.950;2024-01-27T10:53:35;101688.59;;;7.83;100.00
20630;BME280;17386;43.846;25.950;2024-01-27T10:56:03;101684.97;;;7.92;100.00
20630;BME280;17386;43.846;25.950;2024-01-27T10:58:33;101677.13;;;7.84;100.00
20630;BME280;17386;43.846;25.950;2024-01-27T11:01:08;101686.06;;;7.70;100.00
20630;BME280;17386;43.846;25.950;2024-01-27T11:03:38;101678.84;;;7.87;100.00
20630;BME280;17386;43.846;25.950;2024-01-27T11:06:07;101662.34;;;7.60;100.00
20630;BME280;17386;43.846;25.950;2024-01-27T11:08:36;101684.31;;;7.67;100.00
20630;BME280;17386;43.846;25.950;2024-01-27T11:11:03;101685.97;;;7.80;100.00
20630;BME280;17386;43.846;25.950;2024-01-27T11:13:30;101687.56;;;7.95;100.00
20630;BME280;17386;43.846;25.950;2024-01-27T11:15:57;101697.09;;;8.14;100.00
20630;BME280;17386;43.846;25.950;2024-01-27T11:18:25;101709.41;;;8.18;100.00
20630;BME280;17386;43.846;25.950;2024-01-27T11:20:54;101711.88;;;8.38;100.00
20630;BME280;17386;43.846;25.950;2024-01-27T11:23:20;101709.03;;;8.55;100.00
20630;BME280;17386;43.846;25.950;2024-01-27T11:25:45;101721.25;;;8.67;100.00
20630;BME280;17386;43.846;25.950;2024-01-27T11:28:12;101731.25;;;8.42;100.00
20630;BME280;17386;43.846;25.950;2024-01-27T11:30:39;101736.88;;;8.10;100.00
20630;BME280;17386;43.846;25.950;2024-01-27T11:33:05;101747.59;;;7.91;100.00
20630;BME280;17386;43.846;25.950;2024-01-27T11:35:31;101740.66;;;7.78;100.00
20630;BME280;17386;43.846;25.950;2024-01-27T11:37:56;101742.50;;;7.67;100.00
20630;BME280;17386;43.846;25.950;2024-01-27T11:40:22;101733.53;;;7.86;100.00
20630;BME280;17386;43.846;25.950;2024-01-27T11:43:17;101727.91;;;8.20;100.00
20630;BME280;17386;43.846;25.950;2024-01-27T11:45:42;101740.38;;;8.09;100.00
20630;BME280;17386;43.846;25.950;2024-01-27T11:48:07;101738.56;;;8.17;100.00
20630;BME280;17386;43.846;25.950;2024-01-27T11:50:33;101748.97;;;8.32;100.00
20630;BME280;17386;43.846;25.950;2024-01-27T11:52:58;101752.38;;;8.46;100.00
20630;BME280;17386;43.846;25.950;2024-01-27T11:55:24;101753.28;;;8.45;100.00
20630;BME280;17386;43.846;25.950;2024-01-27T11:57:49;101762.34;;;8.18;100.00
20630;BME280;17386;43.846;25.950;2024-01-27T12:00:14;101769.47;;;8.09;100.00
20630;BME280;17386;43.846;25.950;2024-01-27T12:02:41;101769.63;;;7.97;100.00
20630;BME280;17386;43.846;25.950;2024-01-27T12:05:07;101776.53;;;8.08;100.00
20630;BME280;17386;43.846;25.950;2024-01-27T12:07:33;101771.19;;;8.17;100.00
20630;BME280;17386;43.846;25.950;2024-01-27T12:09:59;101770.19;;;8.28;100.00
20630;BME280;17386;43.846;25.950;2024-01-27T12:12:24;101770.19;;;8.31;100.00
20630;BME280;17386;43.846;25.950;2024-01-27T12:14:51;101775.41;;;8.37;100.00
20630;BME280;17386;43.846;25.950;2024-01-27T12:17:17;101783.41;;;8.31;100.00
20630;BME280;17386;43.846;25.950;2024-01-27T12:19:47;101780.81;;;8.23;100.00
20630;BME280;17386;43.846;25.950;2024-01-27T12:22:39;101787.97;;;8.13;100.00
20630;BME280;17386;43.846;25.950;2024-01-27T12:25:09;101783.66;;;8.05;100.00
20630;BME280;17386;43.846;25.950;2024-01-27T12:27:34;101781.06;;;7.99;100.00
20630;BME280;17386;43.846;25.950;2024-01-27T12:30:01;101788.97;;;8.00;100.00
20630;BME280;17386;43.846;25.950;2024-01-27T12:32:27;101792.44;;;8.07;100.00
20630;BME280;17386;43.846;25.950;2024-01-27T12:34:52;101792.66;;;7.82;100.00